sensor_id;sensor_type;location;lat;lon;timestamp;P1;durP1;ratioP1;P2;durP2;ratioP2
20623;SDS011;10471;42.736;23.346;2022-08-21T00:01:18;26.47;;;17.67;;
20623;SDS011;10471;42.736;23.346;2022-08-21T00:03:45;29.43;;;17.67;;
20623;SDS011;10471;42.736;23.346;2022-08-21T00:06:11;27.93;;;18.10;;
20623;SDS011;10471;42.736;23.346;2022-08-21T00:08:37;31.43;;;18.93;;
20623;SDS011;10471;42.736;23.346;2022-08-21T00:11:03;30.70;;;18.27;;
20623;SDS011;10471;42.736;23.346;2022-08-21T00:13:29;30.47;;;18.03;;
20623;SDS011;10471;42.736;23.346;2022-08-21T00:15:54;27.57;;;18.23;;
20623;SDS011;10471;42.736;23.346;2022-08-21T00:18:19;29.67;;;18.60;;
20623;SDS011;10471;42.736;23.346;2022-08-21T00:20:46;29.07;;;16.93;;
20623;SDS011;10471;42.736;23.346;2022-08-21T00:23:12;29.50;;;17.57;;
20623;SDS011;10471;42.736;23.346;2022-08-21T00:25:38;27.77;;;18.53;;
20623;SDS011;10471;42.736;23.346;2022-08-21T00:28:04;27.43;;;17.53;;
20623;SDS011;10471;42.736;23.346;2022-08-21T00:30:31;30.80;;;18.27;;
20623;SDS011;10471;42.736;23.346;2022-08-21T00:32:58;28.33;;;18.20;;
20623;SDS011;10471;42.736;23.346;2022-08-21T00:35:32;34.30;;;20.17;;
20623;SDS011;10471;42.736;23.346;2022-08-21T00:38:00;33.47;;;21.20;;
20623;SDS011;10471;42.736;23.346;2022-08-21T00:40:32;35.13;;;21.23;;
20623;SDS011;10471;42.736;23.346;2022-08-21T00:43:05;42.23;;;21.70;;
20623;SDS011;10471;42.736;23.346;2022-08-21T00:45:33;34.90;;;21.27;;
20623;SDS011;10471;42.736;23.346;2022-08-21T00:47:59;31.90;;;20.07;;
20623;SDS011;10471;42.736;23.346;2022-08-21T00:50:26;36.23;;;20.67;;
20623;SDS011;10471;42.736;23.346;2022-08-21T00:52:56;33.23;;;19.97;;
20623;SDS011;10471;42.736;23.346;2022-08-21T00:55:22;36.97;;;21.70;;
20623;SDS011;10471;42.736;23.346;2022-08-21T00:57:54;35.27;;;20.00;;
20623;SDS011;10471;42.736;23.346;2022-08-21T01:00:26;33.73;;;20.77;;
20623;SDS011;10471;42.736;23.346;2022-08-21T01:02:56;34.77;;;20.43;;
20623;SDS011;10471;42.736;23.346;2022-08-21T01:05:23;35.17;;;20.20;;
20623;SDS011;10471;42.736;23.346;2022-08-21T01:07:48;29.50;;;19.77;;
20623;SDS011;10471;42.736;23.346;2022-08-21T01:10:14;37.27;;;22.10;;
20623;SDS011;10471;42.736;23.346;2022-08-21T01:12:40;41.63;;;23.87;;
20623;SDS011;10471;42.736;23.346;2022-08-21T01:15:06;39.63;;;23.60;;
20623;SDS011;10471;42.736;23.346;2022-08-21T01:17:33;37.20;;;22.80;;
20623;SDS011;10471;42.736;23.346;2022-08-21T01:20:03;33.80;;;21.70;;
20623;SDS011;10471;42.736;23.346;2022-08-21T01:22:31;36.37;;;22.77;;
20623;SDS011;10471;42.736;23.346;2022-08-21T01:24:56;37.00;;;22.63;;
20623;SDS011;10471;42.736;23.346;2022-08-21T01:27:22;31.60;;;21.03;;
20623;SDS011;10471;42.736;23.346;2022-08-21T01:29:51;35.57;;;21.20;;
20623;SDS011;10471;42.736;23.346;2022-08-21T01:32:36;32.77;;;20.87;;
20623;SDS011;10471;42.736;23.346;2022-08-21T01:35:02;32.67;;;20.97;;
20623;SDS011;10471;42.736;23.346;2022-08-21T01:37:28;34.07;;;19.70;;
20623;SDS011;10471;42.736;23.346;2022-08-21T01:39:54;30.77;;;20.27;;
20623;SDS011;10471;42.736;23.346;2022-08-21T01:42:19;35.50;;;20.57;;
20623;SDS011;10471;42.736;23.346;2022-08-21T01:44:44;33.87;;;20.77;;
20623;SDS011;10471;42.736;23.346;2022-08-21T01:47:11;34.07;;;21.27;;
20623;SDS011;10471;42.736;23.346;2022-08-21T01:49:38;35.40;;;21.07;;
20623;SDS011;10471;42.736;23.346;2022-08-21T01:52:04;37.03;;;21.77;;
20623;SDS011;10471;42.736;23.346;2022-08-21T01:54:30;33.13;;;21.67;;
20623;SDS011;10471;42.736;23.346;2022-08-21T01:56:56;31.83;;;19.57;;
20623;SDS011;10471;42.736;23.346;2022-08-21T01:59:23;29.87;;;17.93;;
20623;SDS011;10471;42.736;23.346;2022-08-21T02:01:49;25.20;;;17.30;;
20623;SDS011;10471;42.736;23.346;2022-08-21T02:04:15;29.17;;;16.67;;
20623;SDS011;10471;42.736;23.346;2022-08-21T02:06:41;29.20;;;17.77;;
20623;SDS011;10471;42.736;23.346;2022-08-21T02:09:08;25.97;;;16.40;;
20623;SDS011;10471;42.736;23.346;2022-08-21T02:11:35;25.77;;;16.73;;
20623;SDS011;10471;42.736;23.346;2022-08-21T02:14:01;32.70;;;17.50;;
20623;SDS011;10471;42.736;23.346;2022-08-21T02:16:27;26.57;;;17.23;;
20623;SDS011;10471;42.736;23.346;2022-08-21T02:18:53;24.47;;;17.43;;
20623;SDS011;10471;42.736;23.346;2022-08-21T02:21:18;26.80;;;17.90;;
20623;SDS011;10471;42.736;23.346;2022-08-21T02:23:44;25.63;;;17.30;;
20623;SDS011;10471;42.736;23.346;2022-08-21T02:26:10;26.63;;;17.67;;
20623;SDS011;10471;42.736;23.346;2022-08-21T02:28:36;24.87;;;17.77;;
20623;SDS011;10471;42.736;23.346;2022-08-21T02:31:03;26.57;;;16.97;;
20623;SDS011;10471;42.736;23.346;2022-08-21T02:33:29;24.80;;;17.47;;
20623;SDS011;10471;42.736;23.346;2022-08-21T02:35:55;23.70;;;17.90;;
20623;SDS011;10471;42.736;23.346;2022-08-21T02:38:26;25.23;;;17.13;;
20623;SDS011;10471;42.736;23.346;2022-08-21T02:40:53;25.33;;;16.90;;
20623;SDS011;10471;42.736;23.346;2022-08-21T02:43:20;24.30;;;17.90;;
20623;SDS011;10471;42.736;23.346;2022-08-21T02:45:47;27.10;;;17.10;;
20623;SDS011;10471;42.736;23.346;2022-08-21T02:48:14;25.47;;;16.97;;
20623;SDS011;10471;42.736;23.346;2022-08-21T02:50:43;23.97;;;17.00;;
20623;SDS011;10471;42.736;23.346;2022-08-21T02:53:11;24.70;;;16.60;;
20623;SDS011;10471;42.736;23.346;2022-08-21T02:55:42;25.10;;;17.37;;
20623;SDS011;10471;42.736;23.346;2022-08-21T02:58:11;29.43;;;17.90;;
20623;SDS011;10471;42.736;23.346;2022-08-21T03:00:38;27.33;;;18.37;;
20623;SDS011;10471;42.736;23.346;2022-08-21T03:03:03;35.20;;;18.03;;
20623;SDS011;10471;42.736;23.346;2022-08-21T03:05:30;29.10;;;18.13;;
20623;SDS011;10471;42.736;23.346;2022-08-21T03:07:57;30.50;;;18.57;;
20623;SDS011;10471;42.736;23.346;2022-08-21T03:10:23;26.70;;;17.63;;
20623;SDS011;10471;42.736;23.346;2022-08-21T03:12:50;28.90;;;18.00;;
20623;SDS011;10471;42.736;23.346;2022-08-21T03:15:17;27.30;;;17.93;;
20623;SDS011;10471;42.736;23.346;2022-08-21T03:17:44;26.43;;;18.87;;
20623;SDS011;10471;42.736;23.346;2022-08-21T03:20:11;29.57;;;19.70;;
20623;SDS011;10471;42.736;23.346;2022-08-21T03:22:38;31.10;;;19.77;;
20623;SDS011;10471;42.736;23.346;2022-08-21T03:25:03;29.30;;;19.00;;
20623;SDS011;10471;42.736;23.346;2022-08-21T03:27:29;33.40;;;21.03;;
20623;SDS011;10471;42.736;23.346;2022-08-21T03:29:56;36.27;;;22.93;;
20623;SDS011;10471;42.736;23.346;2022-08-21T03:32:22;42.50;;;24.13;;
20623;SDS011;10471;42.736;23.346;2022-08-21T03:34:47;38.87;;;24.37;;
20623;SDS011;10471;42.736;23.346;2022-08-21T03:37:13;40.70;;;24.50;;
20623;SDS011;10471;42.736;23.346;2022-08-21T03:39:39;41.37;;;24.20;;
20623;SDS011;10471;42.736;23.346;2022-08-21T03:42:06;39.30;;;24.40;;
20623;SDS011;10471;42.736;23.346;2022-08-21T03:44:32;48.63;;;26.07;;
20623;SDS011;10471;42.736;23.346;2022-08-21T03:46:58;45.83;;;26.63;;
20623;SDS011;10471;42.736;23.346;2022-08-21T03:49:24;42.27;;;25.83;;
20623;SDS011;10471;42.736;23.346;2022-08-21T03:51:50;50.43;;;27.73;;
20623;SDS011;10471;42.736;23.346;2022-08-21T03:54:16;53.93;;;29.00;;
20623;SDS011;10471;42.736;23.346;2022-08-21T03:56:41;53.67;;;28.80;;
20623;SDS011;10471;42.736;23.346;2022-08-21T03:59:07;49.47;;;27.00;;
20623;SDS011;10471;42.736;23.346;2022-08-21T04:01:33;47.97;;;27.93;;
20623;SDS011;10471;42.736;23.346;2022-08-21T04:03:58;54.13;;;29.60;;
20623;SDS011;10471;42.736;23.346;2022-08-21T04:06:24;52.87;;;28.80;;
20623;SDS011;10471;42.736;23.346;2022-08-21T04:08:51;49.43;;;28.27;;
20623;SDS011;10471;42.736;23.346;2022-08-21T04:11:17;55.20;;;29.50;;
20623;SDS011;10471;42.736;23.346;2022-08-21T04:13:43;46.00;;;28.30;;
20623;SDS011;10471;42.736;23.346;2022-08-21T04:16:08;45.60;;;27.33;;
20623;SDS011;10471;42.736;23.346;2022-08-21T04:18:34;44.83;;;26.97;;
20623;SDS011;10471;42.736;23.346;2022-08-21T04:20:59;42.50;;;25.53;;
20623;SDS011;10471;42.736;23.346;2022-08-21T04:23:26;39.87;;;24.97;;
20623;SDS011;10471;42.736;23.346;2022-08-21T04:25:53;39.20;;;25.80;;
20623;SDS011;10471;42.736;23.346;2022-08-21T04:28:20;41.57;;;24.90;;
20623;SDS011;10471;42.736;23.346;2022-08-21T04:30:46;38.93;;;24.93;;
20623;SDS011;10471;42.736;23.346;2022-08-21T04:33:12;41.73;;;25.03;;
20623;SDS011;10471;42.736;23.346;2022-08-21T04:35:38;40.33;;;24.53;;
20623;SDS011;10471;42.736;23.346;2022-08-21T04:38:03;42.67;;;25.30;;
20623;SDS011;10471;42.736;23.346;2022-08-21T04:40:28;41.07;;;24.60;;
20623;SDS011;10471;42.736;23.346;2022-08-21T04:42:55;36.90;;;23.53;;
20623;SDS011;10471;42.736;23.346;2022-08-21T04:45:32;40.77;;;23.63;;
20623;SDS011;10471;42.736;23.346;2022-08-21T04:48:01;38.87;;;24.60;;
20623;SDS011;10471;42.736;23.346;2022-08-21T04:52:59;41.50;;;25.40;;
20623;SDS011;10471;42.736;23.346;2022-08-21T04:55:25;39.80;;;25.30;;
20623;SDS011;10471;42.736;23.346;2022-08-21T04:57:52;42.70;;;25.10;;
20623;SDS011;10471;42.736;23.346;2022-08-21T05:00:19;38.30;;;24.27;;
20623;SDS011;10471;42.736;23.346;2022-08-21T05:02:45;36.77;;;23.03;;
20623;SDS011;10471;42.736;23.346;2022-08-21T05:05:12;30.90;;;19.87;;
20623;SDS011;10471;42.736;23.346;2022-08-21T05:07:38;32.20;;;19.87;;
20623;SDS011;10471;42.736;23.346;2022-08-21T05:10:05;28.70;;;18.60;;
20623;SDS011;10471;42.736;23.346;2022-08-21T05:12:32;27.43;;;18.93;;
20623;SDS011;10471;42.736;23.346;2022-08-21T05:14:59;28.73;;;19.00;;
20623;SDS011;10471;42.736;23.346;2022-08-21T05:17:24;27.33;;;18.97;;
20623;SDS011;10471;42.736;23.346;2022-08-21T05:19:49;27.27;;;18.10;;
20623;SDS011;10471;42.736;23.346;2022-08-21T05:22:24;28.23;;;18.47;;
20623;SDS011;10471;42.736;23.346;2022-08-21T05:24:49;24.10;;;18.07;;
20623;SDS011;10471;42.736;23.346;2022-08-21T05:27:16;25.43;;;17.60;;
20623;SDS011;10471;42.736;23.346;2022-08-21T05:29:41;27.80;;;18.70;;
20623;SDS011;10471;42.736;23.346;2022-08-21T05:32:08;25.33;;;17.37;;
20623;SDS011;10471;42.736;23.346;2022-08-21T05:34:34;26.60;;;17.87;;
20623;SDS011;10471;42.736;23.346;2022-08-21T05:37:00;25.00;;;18.33;;
20623;SDS011;10471;42.736;23.346;2022-08-21T05:39:26;26.03;;;18.40;;
20623;SDS011;10471;42.736;23.346;2022-08-21T05:41:51;23.10;;;16.33;;
20623;SDS011;10471;42.736;23.346;2022-08-21T05:44:16;21.47;;;15.70;;
20623;SDS011;10471;42.736;23.346;2022-08-21T05:46:42;25.40;;;16.60;;
20623;SDS011;10471;42.736;23.346;2022-08-21T05:49:07;26.43;;;16.47;;
20623;SDS011;10471;42.736;23.346;2022-08-21T05:51:33;26.10;;;17.33;;
20623;SDS011;10471;42.736;23.346;2022-08-21T05:53:58;25.23;;;17.70;;
20623;SDS011;10471;42.736;23.346;2022-08-21T05:56:23;28.93;;;18.27;;
20623;SDS011;10471;42.736;23.346;2022-08-21T05:58:49;25.50;;;18.77;;
20623;SDS011;10471;42.736;23.346;2022-08-21T06:01:14;24.40;;;17.93;;
20623;SDS011;10471;42.736;23.346;2022-08-21T06:03:40;27.60;;;17.50;;
20623;SDS011;10471;42.736;23.346;2022-08-21T06:06:07;25.33;;;17.67;;
20623;SDS011;10471;42.736;23.346;2022-08-21T06:08:34;28.23;;;18.43;;
20623;SDS011;10471;42.736;23.346;2022-08-21T06:11:00;28.23;;;20.93;;
20623;SDS011;10471;42.736;23.346;2022-08-21T06:13:26;30.77;;;20.30;;
20623;SDS011;10471;42.736;23.346;2022-08-21T06:18:33;28.30;;;21.50;;
20623;SDS011;10471;42.736;23.346;2022-08-21T06:20:59;30.57;;;21.50;;
20623;SDS011;10471;42.736;23.346;2022-08-21T06:23:25;30.77;;;22.23;;
20623;SDS011;10471;42.736;23.346;2022-08-21T06:25:50;32.10;;;22.80;;
20623;SDS011;10471;42.736;23.346;2022-08-21T06:28:16;30.67;;;21.80;;
20623;SDS011;10471;42.736;23.346;2022-08-21T06:30:41;32.17;;;22.20;;
20623;SDS011;10471;42.736;23.346;2022-08-21T06:33:07;31.17;;;21.27;;
20623;SDS011;10471;42.736;23.346;2022-08-21T06:35:33;31.37;;;21.47;;
20623;SDS011;10471;42.736;23.346;2022-08-21T06:37:59;28.73;;;21.10;;
20623;SDS011;10471;42.736;23.346;2022-08-21T06:40:25;30.93;;;21.57;;
20623;SDS011;10471;42.736;23.346;2022-08-21T06:42:51;31.13;;;21.10;;
20623;SDS011;10471;42.736;23.346;2022-08-21T06:45:17;30.17;;;20.73;;
20623;SDS011;10471;42.736;23.346;2022-08-21T06:47:43;29.50;;;20.47;;
20623;SDS011;10471;42.736;23.346;2022-08-21T06:50:08;25.50;;;18.93;;
20623;SDS011;10471;42.736;23.346;2022-08-21T06:52:34;25.97;;;18.17;;
20623;SDS011;10471;42.736;23.346;2022-08-21T06:55:01;25.87;;;16.30;;
20623;SDS011;10471;42.736;23.346;2022-08-21T06:57:29;24.27;;;16.00;;
20623;SDS011;10471;42.736;23.346;2022-08-21T06:59:54;22.97;;;17.97;;
20623;SDS011;10471;42.736;23.346;2022-08-21T07:02:20;24.50;;;17.17;;
20623;SDS011;10471;42.736;23.346;2022-08-21T07:04:46;24.17;;;17.70;;
20623;SDS011;10471;42.736;23.346;2022-08-21T07:07:11;20.63;;;16.80;;
20623;SDS011;10471;42.736;23.346;2022-08-21T07:09:37;23.93;;;17.50;;
20623;SDS011;10471;42.736;23.346;2022-08-21T07:12:02;26.27;;;17.43;;
20623;SDS011;10471;42.736;23.346;2022-08-21T07:14:28;19.97;;;15.80;;
20623;SDS011;10471;42.736;23.346;2022-08-21T07:16:53;23.97;;;16.13;;
20623;SDS011;10471;42.736;23.346;2022-08-21T07:19:19;23.30;;;16.27;;
20623;SDS011;10471;42.736;23.346;2022-08-21T07:21:45;21.77;;;15.30;;
20623;SDS011;10471;42.736;23.346;2022-08-21T07:24:10;24.03;;;15.87;;
20623;SDS011;10471;42.736;23.346;2022-08-21T07:26:36;23.57;;;16.17;;
20623;SDS011;10471;42.736;23.346;2022-08-21T07:29:01;21.17;;;15.83;;
20623;SDS011;10471;42.736;23.346;2022-08-21T07:31:28;18.97;;;14.30;;
20623;SDS011;10471;42.736;23.346;2022-08-21T07:33:54;19.00;;;14.77;;
20623;SDS011;10471;42.736;23.346;2022-08-21T07:36:20;21.73;;;14.97;;
20623;SDS011;10471;42.736;23.346;2022-08-21T07:38:45;18.40;;;13.93;;
20623;SDS011;10471;42.736;23.346;2022-08-21T07:41:13;20.47;;;14.63;;
20623;SDS011;10471;42.736;23.346;2022-08-21T07:43:42;18.67;;;14.20;;
20623;SDS011;10471;42.736;23.346;2022-08-21T07:46:08;21.03;;;14.13;;
20623;SDS011;10471;42.736;23.346;2022-08-21T07:48:34;21.60;;;14.80;;
20623;SDS011;10471;42.736;23.346;2022-08-21T07:51:01;18.90;;;14.20;;
20623;SDS011;10471;42.736;23.346;2022-08-21T07:53:30;21.57;;;15.37;;
20623;SDS011;10471;42.736;23.346;2022-08-21T07:55:58;22.53;;;16.23;;
20623;SDS011;10471;42.736;23.346;2022-08-21T07:58:24;19.40;;;12.40;;
20623;SDS011;10471;42.736;23.346;2022-08-21T08:00:49;20.40;;;14.00;;
20623;SDS011;10471;42.736;23.346;2022-08-21T08:03:15;24.07;;;17.43;;
20623;SDS011;10471;42.736;23.346;2022-08-21T08:05:40;18.30;;;15.40;;
20623;SDS011;10471;42.736;23.346;2022-08-21T08:08:05;20.90;;;16.10;;
20623;SDS011;10471;42.736;23.346;2022-08-21T08:10:32;19.40;;;14.57;;
20623;SDS011;10471;42.736;23.346;2022-08-21T08:12:58;22.33;;;15.07;;
20623;SDS011;10471;42.736;23.346;2022-08-21T08:15:24;18.63;;;13.60;;
20623;SDS011;10471;42.736;23.346;2022-08-21T08:17:52;17.27;;;13.30;;
20623;SDS011;10471;42.736;23.346;2022-08-21T08:20:19;18.50;;;14.20;;
20623;SDS011;10471;42.736;23.346;2022-08-21T08:22:46;18.00;;;14.03;;
20623;SDS011;10471;42.736;23.346;2022-08-21T08:25:12;18.07;;;13.37;;
20623;SDS011;10471;42.736;23.346;2022-08-21T08:27:39;18.23;;;13.30;;
20623;SDS011;10471;42.736;23.346;2022-08-21T08:30:05;18.87;;;13.27;;
20623;SDS011;10471;42.736;23.346;2022-08-21T08:32:32;16.67;;;13.50;;
20623;SDS011;10471;42.736;23.346;2022-08-21T08:34:58;19.30;;;14.70;;
20623;SDS011;10471;42.736;23.346;2022-08-21T08:37:24;20.63;;;14.43;;
20623;SDS011;10471;42.736;23.346;2022-08-21T08:39:49;20.30;;;14.03;;
20623;SDS011;10471;42.736;23.346;2022-08-21T08:42:20;18.60;;;13.67;;
20623;SDS011;10471;42.736;23.346;2022-08-21T08:45:00;20.13;;;12.80;;
20623;SDS011;10471;42.736;23.346;2022-08-21T08:47:27;18.03;;;12.57;;
20623;SDS011;10471;42.736;23.346;2022-08-21T08:49:56;15.27;;;11.67;;
20623;SDS011;10471;42.736;23.346;2022-08-21T08:52:31;17.17;;;12.27;;
20623;SDS011;10471;42.736;23.346;2022-08-21T08:57:27;17.33;;;12.13;;
20623;SDS011;10471;42.736;23.346;2022-08-21T08:59:53;15.20;;;11.70;;
20623;SDS011;10471;42.736;23.346;2022-08-21T09:02:23;20.47;;;14.00;;
20623;SDS011;10471;42.736;23.346;2022-08-21T09:04:49;15.27;;;12.80;;
20623;SDS011;10471;42.736;23.346;2022-08-21T09:21:05;14.37;;;10.80;;
20623;SDS011;10471;42.736;23.346;2022-08-21T09:26:30;19.37;;;11.00;;
20623;SDS011;10471;42.736;23.346;2022-08-21T09:29:05;15.60;;;10.20;;
20623;SDS011;10471;42.736;23.346;2022-08-21T09:31:34;16.23;;;10.60;;
20623;SDS011;10471;42.736;23.346;2022-08-21T09:34:04;14.17;;;10.07;;
20623;SDS011;10471;42.736;23.346;2022-08-21T09:36:41;13.83;;;10.00;;
20623;SDS011;10471;42.736;23.346;2022-08-21T09:39:09;13.77;;;10.43;;
20623;SDS011;10471;42.736;23.346;2022-08-21T09:41:36;14.73;;;9.60;;
20623;SDS011;10471;42.736;23.346;2022-08-21T09:44:04;13.50;;;9.03;;
20623;SDS011;10471;42.736;23.346;2022-08-21T09:46:31;14.60;;;10.23;;
20623;SDS011;10471;42.736;23.346;2022-08-21T09:48:58;13.93;;;9.40;;
20623;SDS011;10471;42.736;23.346;2022-08-21T09:51:27;12.33;;;9.03;;
20623;SDS011;10471;42.736;23.346;2022-08-21T09:56:39;13.77;;;9.33;;
20623;SDS011;10471;42.736;23.346;2022-08-21T09:59:37;11.40;;;8.10;;
20623;SDS011;10471;42.736;23.346;2022-08-21T10:04:54;12.40;;;7.70;;
20623;SDS011;10471;42.736;23.346;2022-08-21T10:07:23;14.13;;;8.37;;
20623;SDS011;10471;42.736;23.346;2022-08-21T10:10:13;14.77;;;8.67;;
20623;SDS011;10471;42.736;23.346;2022-08-21T10:12:45;12.83;;;7.40;;
20623;SDS011;10471;42.736;23.346;2022-08-21T10:15:22;15.30;;;7.60;;
20623;SDS011;10471;42.736;23.346;2022-08-21T10:18:07;12.20;;;7.50;;
20623;SDS011;10471;42.736;23.346;2022-08-21T10:20:41;13.43;;;7.33;;
20623;SDS011;10471;42.736;23.346;2022-08-21T10:28:52;13.57;;;7.73;;
20623;SDS011;10471;42.736;23.346;2022-08-21T10:31:32;10.77;;;6.57;;
20623;SDS011;10471;42.736;23.346;2022-08-21T10:34:14;10.03;;;6.73;;
20623;SDS011;10471;42.736;23.346;2022-08-21T10:39:42;13.03;;;6.53;;
20623;SDS011;10471;42.736;23.346;2022-08-21T10:48:01;11.90;;;6.83;;
20623;SDS011;10471;42.736;23.346;2022-08-21T10:50:49;10.00;;;7.00;;
20623;SDS011;10471;42.736;23.346;2022-08-21T10:56:25;11.00;;;6.43;;
20623;SDS011;10471;42.736;23.346;2022-08-21T11:01:46;9.67;;;7.00;;
20623;SDS011;10471;42.736;23.346;2022-08-21T11:07:00;14.97;;;6.33;;
20623;SDS011;10471;42.736;23.346;2022-08-21T11:09:31;13.50;;;6.67;;
20623;SDS011;10471;42.736;23.346;2022-08-21T11:11:58;9.67;;;6.00;;
20623;SDS011;10471;42.736;23.346;2022-08-21T11:17:47;10.97;;;6.13;;
20623;SDS011;10471;42.736;23.346;2022-08-21T11:20:34;10.83;;;5.70;;
20623;SDS011;10471;42.736;23.346;2022-08-21T11:23:25;11.73;;;6.07;;
20623;SDS011;10471;42.736;23.346;2022-08-21T11:26:04;8.13;;;5.70;;
20623;SDS011;10471;42.736;23.346;2022-08-21T11:28:35;14.37;;;7.13;;
20623;SDS011;10471;42.736;23.346;2022-08-21T11:39:38;8.13;;;5.40;;
20623;SDS011;10471;42.736;23.346;2022-08-21T11:42:58;11.47;;;6.30;;
20623;SDS011;10471;42.736;23.346;2022-08-21T11:51:12;11.30;;;5.83;;
20623;SDS011;10471;42.736;23.346;2022-08-21T11:53:54;8.87;;;5.60;;
20623;SDS011;10471;42.736;23.346;2022-08-21T11:56:38;8.80;;;6.07;;
20623;SDS011;10471;42.736;23.346;2022-08-21T11:59:20;9.73;;;6.10;;
20623;SDS011;10471;42.736;23.346;2022-08-21T12:01:52;9.47;;;6.00;;
20623;SDS011;10471;42.736;23.346;2022-08-21T12:04:25;9.90;;;6.40;;
20623;SDS011;10471;42.736;23.346;2022-08-21T12:07:15;12.13;;;6.83;;
20623;SDS011;10471;42.736;23.346;2022-08-21T12:09:54;12.30;;;6.60;;
20623;SDS011;10471;42.736;23.346;2022-08-21T12:15:03;14.43;;;7.93;;
20623;SDS011;10471;42.736;23.346;2022-08-21T12:17:38;12.97;;;7.23;;
20623;SDS011;10471;42.736;23.346;2022-08-21T12:22:53;10.10;;;7.10;;
20623;SDS011;10471;42.736;23.346;2022-08-21T12:25:35;9.83;;;7.03;;
20623;SDS011;10471;42.736;23.346;2022-08-21T12:28:06;9.60;;;7.40;;
20623;SDS011;10471;42.736;23.346;2022-08-21T12:30:36;10.93;;;7.80;;
20623;SDS011;10471;42.736;23.346;2022-08-21T12:33:04;10.40;;;7.50;;
20623;SDS011;10471;42.736;23.346;2022-08-21T12:35:43;9.80;;;7.20;;
20623;SDS011;10471;42.736;23.346;2022-08-21T12:41:40;8.43;;;7.20;;
20623;SDS011;10471;42.736;23.346;2022-08-21T12:44:13;11.37;;;7.37;;
20623;SDS011;10471;42.736;23.346;2022-08-21T12:49:40;12.47;;;7.57;;
20623;SDS011;10471;42.736;23.346;2022-08-21T12:55:26;11.47;;;7.93;;
20623;SDS011;10471;42.736;23.346;2022-08-21T12:57:54;8.57;;;6.73;;
20623;SDS011;10471;42.736;23.346;2022-08-21T13:00:21;10.37;;;7.03;;
20623;SDS011;10471;42.736;23.346;2022-08-21T13:02:49;26.80;;;8.27;;
20623;SDS011;10471;42.736;23.346;2022-08-21T13:05:23;12.80;;;7.27;;
20623;SDS011;10471;42.736;23.346;2022-08-21T13:07:50;11.30;;;7.43;;
20623;SDS011;10471;42.736;23.346;2022-08-21T13:10:18;13.60;;;7.73;;
20623;SDS011;10471;42.736;23.346;2022-08-21T13:12:46;23.93;;;7.63;;
20623;SDS011;10471;42.736;23.346;2022-08-21T13:15:12;11.00;;;7.03;;
20623;SDS011;10471;42.736;23.346;2022-08-21T13:17:39;9.83;;;6.77;;
20623;SDS011;10471;42.736;23.346;2022-08-21T13:20:32;13.03;;;7.20;;
20623;SDS011;10471;42.736;23.346;2022-08-21T13:23:25;7.60;;;6.67;;
20623;SDS011;10471;42.736;23.346;2022-08-21T13:25:53;17.13;;;6.87;;
20623;SDS011;10471;42.736;23.346;2022-08-21T13:28:20;10.73;;;6.40;;
20623;SDS011;10471;42.736;23.346;2022-08-21T13:30:50;11.43;;;6.33;;
20623;SDS011;10471;42.736;23.346;2022-08-21T13:33:18;10.83;;;6.63;;
20623;SDS011;10471;42.736;23.346;2022-08-21T13:36:29;8.40;;;6.67;;
20623;SDS011;10471;42.736;23.346;2022-08-21T13:38:44;10.13;;;6.80;;
20623;SDS011;10471;42.736;23.346;2022-08-21T13:43:44;10.07;;;6.97;;
20623;SDS011;10471;42.736;23.346;2022-08-21T13:46:12;10.53;;;6.90;;
20623;SDS011;10471;42.736;23.346;2022-08-21T13:48:39;13.73;;;6.90;;
20623;SDS011;10471;42.736;23.346;2022-08-21T13:51:06;9.83;;;6.43;;
20623;SDS011;10471;42.736;23.346;2022-08-21T13:56:06;12.23;;;7.20;;
20623;SDS011;10471;42.736;23.346;2022-08-21T13:58:33;12.23;;;7.30;;
20623;SDS011;10471;42.736;23.346;2022-08-21T14:01:21;10.83;;;7.10;;
20623;SDS011;10471;42.736;23.346;2022-08-21T14:03:54;8.43;;;6.77;;
20623;SDS011;10471;42.736;23.346;2022-08-21T14:06:27;13.23;;;7.20;;
20623;SDS011;10471;42.736;23.346;2022-08-21T14:09:45;11.33;;;6.50;;
20623;SDS011;10471;42.736;23.346;2022-08-21T14:11:59;12.83;;;6.77;;
20623;SDS011;10471;42.736;23.346;2022-08-21T14:14:31;8.53;;;6.70;;
20623;SDS011;10471;42.736;23.346;2022-08-21T14:16:59;11.10;;;6.73;;
20623;SDS011;10471;42.736;23.346;2022-08-21T14:19:40;10.97;;;6.33;;
20623;SDS011;10471;42.736;23.346;2022-08-21T14:25:11;11.10;;;6.43;;
20623;SDS011;10471;42.736;23.346;2022-08-21T14:27:38;9.03;;;6.53;;
20623;SDS011;10471;42.736;23.346;2022-08-21T14:30:11;10.97;;;6.80;;
20623;SDS011;10471;42.736;23.346;2022-08-21T14:32:42;9.67;;;6.80;;
20623;SDS011;10471;42.736;23.346;2022-08-21T14:35:08;10.33;;;6.70;;
20623;SDS011;10471;42.736;23.346;2022-08-21T14:37:33;11.63;;;6.60;;
20623;SDS011;10471;42.736;23.346;2022-08-21T14:39:59;10.23;;;6.30;;
20623;SDS011;10471;42.736;23.346;2022-08-21T14:42:24;10.13;;;6.87;;
20623;SDS011;10471;42.736;23.346;2022-08-21T14:44:50;9.67;;;6.40;;
20623;SDS011;10471;42.736;23.346;2022-08-21T14:47:18;9.40;;;6.50;;
20623;SDS011;10471;42.736;23.346;2022-08-21T14:49:44;9.80;;;6.63;;
20623;SDS011;10471;42.736;23.346;2022-08-21T14:52:09;8.53;;;6.40;;
20623;SDS011;10471;42.736;23.346;2022-08-21T14:54:35;11.17;;;7.20;;
20623;SDS011;10471;42.736;23.346;2022-08-21T14:57:05;11.93;;;6.60;;
20623;SDS011;10471;42.736;23.346;2022-08-21T14:59:34;9.33;;;6.13;;
20623;SDS011;10471;42.736;23.346;2022-08-21T15:02:00;9.53;;;6.10;;
20623;SDS011;10471;42.736;23.346;2022-08-21T15:04:29;12.93;;;6.63;;
20623;SDS011;10471;42.736;23.346;2022-08-21T15:06:54;9.33;;;6.33;;
20623;SDS011;10471;42.736;23.346;2022-08-21T15:09:19;10.00;;;6.83;;
20623;SDS011;10471;42.736;23.346;2022-08-21T15:11:45;7.90;;;6.63;;
20623;SDS011;10471;42.736;23.346;2022-08-21T15:14:12;8.97;;;7.57;;
20623;SDS011;10471;42.736;23.346;2022-08-21T15:16:48;10.50;;;7.03;;
20623;SDS011;10471;42.736;23.346;2022-08-21T15:19:15;10.97;;;7.33;;
20623;SDS011;10471;42.736;23.346;2022-08-21T15:21:40;12.53;;;7.70;;
20623;SDS011;10471;42.736;23.346;2022-08-21T15:24:06;12.17;;;8.17;;
20623;SDS011;10471;42.736;23.346;2022-08-21T15:26:33;12.47;;;7.10;;
20623;SDS011;10471;42.736;23.346;2022-08-21T15:28:59;10.90;;;6.83;;
20623;SDS011;10471;42.736;23.346;2022-08-21T15:31:25;11.03;;;7.20;;
20623;SDS011;10471;42.736;23.346;2022-08-21T15:33:52;12.47;;;7.70;;
20623;SDS011;10471;42.736;23.346;2022-08-21T15:36:18;12.80;;;6.90;;
20623;SDS011;10471;42.736;23.346;2022-08-21T15:38:44;11.27;;;7.40;;
20623;SDS011;10471;42.736;23.346;2022-08-21T15:41:10;10.27;;;7.10;;
20623;SDS011;10471;42.736;23.346;2022-08-21T15:43:46;14.07;;;7.93;;
20623;SDS011;10471;42.736;23.346;2022-08-21T15:46:14;11.50;;;7.63;;
20623;SDS011;10471;42.736;23.346;2022-08-21T15:48:42;10.80;;;7.13;;
20623;SDS011;10471;42.736;23.346;2022-08-21T15:51:08;12.70;;;7.53;;
20623;SDS011;10471;42.736;23.346;2022-08-21T15:53:35;8.03;;;7.17;;
20623;SDS011;10471;42.736;23.346;2022-08-21T15:56:03;8.57;;;7.47;;